Time;durP1;ratioP1;P1;durP2;ratioP2;P2;SDS_P1;SDS_P2;PMS_P1;PMS_P2;Temp;Humidity;BMP_temperature;BMP_pressure;BME280_temperature;BME280_humidity;BME280_pressure;Samples;Min_cycle;Max_cycle;Signal;HPM_P1;HPM_P2
2021/03/27 00:02:41;;;;;;;87.88;44.80;;;;;;;10.14;64.44;100795.88;4862886;58;1143099;-74
2021/03/27 00:08:14;;;;;;;76.03;44.57;;;;;;;10.12;64.75;100789.37;4864305;58;1143368;-74
2021/03/27 00:13:36;;;;;;;88.03;44.60;;;;;;;10.13;64.71;100791.55;4892118;59;1143427;-74
2021/03/27 00:19:01;;;;;;;82.30;44.33;;;;;;;10.10;64.68;100776.75;4905469;58;1143336;-74
2021/03/27 00:24:32;;;;;;;79.70;43.83;;;;;;;10.11;64.66;100773.16;4897501;58;1143347;-74
2021/03/27 00:29:44;;;;;;;85.80;45.13;;;;;;;10.09;64.54;100771.56;4901041;58;1143338;-74
2021/03/27 00:34:55;;;;;;;83.37;44.15;;;;;;;10.05;64.51;100763.52;4836464;58;1143391;-74
2021/03/27 00:40:11;;;;;;;81.70;44.15;;;;;;;9.96;64.65;100758.39;4808312;60;1142741;-75
2021/03/27 00:45:24;;;;;;;77.30;42.57;;;;;;;9.88;64.83;100755.47;4808514;60;1140672;-74
2021/03/27 00:50:44;;;;;;;100.10;51.07;;;;;;;9.84;64.60;100751.34;4814192;59;1140696;-74
2021/03/27 00:55:54;;;;;;;88.70;45.17;;;;;;;9.79;65.26;100742.89;4898484;58;1142861;-73
2021/03/27 01:01:05;;;;;;;68.50;33.50;;;;;;;9.70;65.65;100729.88;4884427;59;1141111;-74
2021/03/27 01:06:14;;;;;;;79.50;42.63;;;;;;;9.57;65.65;100742.25;4893762;59;1140956;-74
2021/03/27 01:11:51;;;;;;;86.20;43.50;;;;;;;9.22;65.50;100730.16;4935517;58;1140882;-74
2021/03/27 01:17:01;;;;;;;90.12;44.40;;;;;;;9.11;66.67;100712.91;4936746;58;1140738;-74
2021/03/27 01:22:12;;;;;;;84.27;43.63;;;;;;;9.04;66.72;100719.06;4936623;58;1138684;-74
2021/03/27 01:27:25;;;;;;;78.80;40.23;;;;;;;8.88;66.08;100708.33;4936462;58;1140594;-73
2021/03/27 01:32:44;;;;;;;90.73;44.77;;;;;;;8.88;66.89;100707.86;4936765;58;1140706;-73
2021/03/27 01:37:54;;;;;;;86.80;45.30;;;;;;;8.94;67.48;100698.23;4924525;58;1140532;-73
2021/03/27 01:43:34;;;;;;;83.42;42.93;;;;;;;8.98;67.41;100695.76;4936337;58;1140704;-74
2021/03/27 01:48:58;;;;;;;88.83;45.63;;;;;;;9.02;67.54;100691.09;4992262;58;1141048;-74
2021/03/27 01:54:14;;;;;;;100.58;48.13;;;;;;;8.99;67.49;100684.73;4988511;58;1140748;-74
2021/03/27 01:59:27;;;;;;;82.87;42.40;;;;;;;8.98;67.51;100683.89;4999153;58;1143064;-74
2021/03/27 02:05:16;;;;;;;87.00;42.23;;;;;;;8.96;67.69;100669.11;5003673;58;1140938;-74
2021/03/27 02:10:40;;;;;;;111.57;51.83;;;;;;;8.90;67.59;100663.77;5003915;58;1140913;-74
2021/03/27 02:15:58;;;;;;;92.23;46.20;;;;;;;8.87;67.60;100660.02;5003669;58;1142849;-74
2021/03/27 02:21:40;;;;;;;87.93;43.80;;;;;;;8.85;67.55;100659.30;4988207;58;1141459;-74
2021/03/27 02:27:08;;;;;;;91.83;45.83;;;;;;;8.84;67.38;100652.81;4935102;58;1141187;-74
2021/03/27 02:32:18;;;;;;;101.07;42.70;;;;;;;8.78;67.50;100654.06;4935119;58;1140515;-74
2021/03/27 02:37:49;;;;;;;81.50;41.57;;;;;;;8.72;67.32;100646.08;4934684;58;1140503;-74
2021/03/27 02:43:14;;;;;;;79.32;41.55;;;;;;;8.64;67.30;100643.60;4935169;57;1138515;-74
2021/03/27 02:48:48;;;;;;;87.07;42.97;;;;;;;8.57;67.28;100639.20;4934639;58;1140722;-74
2021/03/27 02:54:12;;;;;;;92.35;48.02;;;;;;;8.57;67.46;100634.41;4978466;58;1140716;-74
2021/03/27 02:59:46;;;;;;;81.93;43.50;;;;;;;8.54;67.49;100632.00;4981721;58;1140716;-74
2021/03/27 03:05:24;;;;;;;79.03;41.83;;;;;;;8.45;67.52;100627.70;4991031;58;1140741;-74
2021/03/27 03:10:36;;;;;;;86.67;44.20;;;;;;;8.35;67.52;100620.05;4990691;58;1141181;-74
2021/03/27 03:15:49;;;;;;;84.30;41.80;;;;;;;8.24;67.82;100617.27;4990343;58;1138965;-74
2021/03/27 03:21:14;;;;;;;75.35;38.30;;;;;;;8.22;68.19;100615.67;4986153;58;1141408;-74
2021/03/27 03:26:48;;;;;;;80.63;39.73;;;;;;;8.25;68.24;100605.74;4891865;59;1141019;-74
2021/03/27 03:32:07;;;;;;;74.88;39.28;;;;;;;8.25;68.54;100599.66;4870264;58;1140605;-74
2021/03/27 03:37:17;;;;;;;70.20;38.70;;;;;;;8.22;68.68;100598.07;4857298;59;1140640;-74
2021/03/27 03:42:49;;;;;;;83.50;38.60;;;;;;;8.20;68.66;100589.89;4871222;58;1141007;-74
2021/03/27 03:48:15;;;;;;;63.92;36.00;;;;;;;8.20;68.85;100589.89;4900426;58;1138729;-74
2021/03/27 03:53:40;;;;;;;71.53;33.30;;;;;;;8.15;69.17;100585.39;4926672;58;1138738;-74
2021/03/27 03:58:53;;;;;;;63.83;34.37;;;;;;;8.18;69.24;100582.09;4926709;58;1140626;-73
2021/03/27 04:04:00;;;;;;;;;;;;;;;8.22;69.27;100577.47;4918500;58;1140657;-74
2021/03/27 04:09:40;;;;;;;59.37;33.80;;;;;;;8.23;69.22;100578.69;4927464;58;973931;-74
2021/03/27 04:14:53;;;;;;;73.40;37.10;;;;;;;8.24;69.24;100583.01;4902012;58;1138732;-74
2021/03/27 04:20:09;;;;;;;77.42;37.08;;;;;;;8.10;69.25;100569.88;4900432;58;1138491;-73
2021/03/27 04:25:37;;;;;;;70.67;34.40;;;;;;;8.04;69.28;100579.53;4885697;58;1138464;-74
2021/03/27 04:31:02;;;;;;;70.23;33.37;;;;;;;7.97;69.96;100572.48;4886491;58;1140656;-77
2021/03/27 04:36:13;;;;;;;63.30;33.27;;;;;;;7.93;69.88;100571.02;4858654;58;1140535;-75
2021/03/27 04:41:50;;;;;;;68.87;34.90;;;;;;;7.90;69.82;100567.74;4893670;58;1140542;-75
2021/03/27 04:47:19;;;;;;;76.22;39.35;;;;;;;7.86;69.87;100559.19;4814623;60;1140699;-75
2021/03/27 04:52:57;;;;;;;75.70;37.40;;;;;;;7.80;69.65;100565.31;4767817;60;1139112;-75
2021/03/27 04:58:39;;;;;;;63.45;32.10;;;;;;;7.74;69.67;100559.53;4765454;60;1139218;-75
2021/03/27 05:04:01;;;;;;;62.07;32.70;;;;;;;7.73;69.79;100554.36;4808047;60;1141130;-75
2021/03/27 05:09:41;;;;;;;67.74;33.76;;;;;;;7.70;70.04;100555.40;4837380;60;1140616;-74
2021/03/27 05:15:08;;;;;;;77.80;34.80;;;;;;;7.68;69.89;100558.59;4837454;60;1140609;-75
2021/03/27 05:20:23;;;;;;;73.40;34.83;;;;;;;7.65;69.97;100549.58;4844172;58;1138469;-75
2021/03/27 05:25:55;;;;;;;65.03;32.00;;;;;;;7.66;70.04;100549.11;4920426;58;1138827;-75
2021/03/27 05:31:27;;;;;;;60.83;29.45;;;;;;;7.69;69.87;100547.60;4920311;58;1140599;-75
2021/03/27 05:37:03;;;;;;;65.80;33.33;;;;;;;7.78;70.12;100543.06;4920093;58;1140573;-75
2021/03/27 05:42:47;;;;;;;76.55;34.75;;;;;;;7.82;70.21;100535.31;4920362;58;1140592;-75
2021/03/27 05:48:22;;;;;;;54.20;27.17;;;;;;;7.87;70.22;100534.55;4920651;58;1140771;-75
2021/03/27 05:53:51;;;;;;;58.03;28.67;;;;;;;7.91;70.23;100531.25;4920359;58;1138583;-75
2021/03/27 05:59:25;;;;;;;60.63;30.72;;;;;;;8.03;70.24;100528.64;4920123;58;1140588;-74
2021/03/27 06:04:53;;;;;;;52.10;28.65;;;;;;;8.25;69.94;100521.43;4920405;58;1140688;-75
2021/03/27 06:10:24;;;;;;;47.00;21.25;;;;;;;8.48;69.78;100515.95;4919563;58;1140543;-75
2021/03/27 06:16:09;;;;;;;58.30;29.30;;;;;;;8.69;69.42;100536.89;4912150;58;1140370;-76
2021/03/27 06:21:41;;;;;;;;;;;;;;;8.84;69.39;100511.72;4923968;58;1140505;-75
2021/03/27 06:27:19;;;;;;;53.23;24.63;;;;;;;9.08;68.73;100509.48;4905807;59;974068;-73
2021/03/27 06:32:44;;;;;;;59.13;26.43;;;;;;;9.29;67.83;100508.43;4892599;59;1138673;-73
2021/03/27 06:38:22;;;;;;;50.97;25.13;;;;;;;9.53;67.90;100507.95;4784650;60;1141367;-72
2021/03/27 06:43:53;;;;;;;48.53;24.47;;;;;;;9.80;67.47;100502.89;4788232;60;1141153;-73
2021/03/27 06:49:45;;;;;;;44.27;21.65;;;;;;;10.10;67.11;100505.88;4785759;60;1141099;-73
2021/03/27 06:55:07;;;;;;;50.25;22.77;;;;;;;10.37;66.20;100499.02;4786551;60;1142703;-73
2021/03/27 07:00:50;;;;;;;59.57;23.37;;;;;;;10.64;64.98;100481.95;4816407;60;1142551;-74
2021/03/27 07:06:41;;;;;;;50.70;28.27;;;;;;;10.86;64.29;100480.13;4794384;60;1152220;-73
2021/03/27 07:12:27;;;;;;;48.25;26.80;;;;;;;11.09;63.58;100466.88;4764236;60;1142518;-73
2021/03/27 07:17:49;;;;;;;49.07;25.47;;;;;;;11.36;62.34;100470.41;4926116;58;1143006;-73
2021/03/27 07:23:33;;;;;;;51.30;25.33;;;;;;;11.54;61.08;100455.19;4926512;58;1142776;-73
2021/03/27 07:28:49;;;;;;;61.73;24.52;;;;;;;11.69;61.07;100450.42;4926366;58;1143165;-73
2021/03/27 07:34:24;;;;;;;46.83;24.40;;;;;;;11.93;61.05;100432.48;4926030;58;1147204;-73
2021/03/27 07:39:46;;;;;;;51.80;22.77;;;;;;;12.08;60.03;100440.94;4925964;58;1142655;-73
2021/03/27 07:45:12;;;;;;;51.47;24.07;;;;;;;12.06;58.40;100469.91;4924593;58;1142875;-72
2021/03/27 07:50:45;;;;;;;42.57;21.23;;;;;;;12.14;60.40;100462.97;4896183;58;1142828;-76
2021/03/27 07:56:29;;;;;;;42.47;19.53;;;;;;;12.28;58.58;100464.44;4921329;58;1142633;-73
2021/03/27 08:01:56;;;;;;;43.25;21.60;;;;;;;12.52;57.50;100448.24;4849168;60;1142471;-73
2021/03/27 08:07:48;;;;;;;42.12;22.10;;;;;;;12.74;57.77;100443.21;4852051;59;1143031;-73
2021/03/27 08:13:26;;;;;;;47.20;20.65;;;;;;;12.98;58.25;100443.23;4910053;59;1142501;-75
2021/03/27 08:19:09;;;;;;;41.93;19.17;;;;;;;13.09;56.67;100452.05;4910576;58;1142582;-76
2021/03/27 08:24:36;;;;;;;38.60;19.83;;;;;;;13.27;55.67;100459.25;4915751;59;1142516;-74
2021/03/27 08:30:19;;;;;;;49.80;21.67;;;;;;;13.43;55.34;100464.02;4915545;59;1142963;-75
2021/03/27 08:35:48;;;;;;;47.97;20.77;;;;;;;13.56;55.68;100466.41;4835272;60;1142633;-75
2021/03/27 08:41:29;;;;;;;43.73;19.00;;;;;;;13.52;54.91;100467.16;4889452;59;1142896;-76
2021/03/27 08:46:54;;;;;;;37.13;20.03;;;;;;;13.47;54.65;100470.72;4904480;59;1142602;-73
2021/03/27 08:52:26;;;;;;;34.73;17.87;;;;;;;13.41;54.63;100461.15;4924202;59;1142660;-76
2021/03/27 08:57:39;;;;;;;41.90;20.68;;;;;;;13.30;53.19;100452.80;4933128;59;1142495;-74
2021/03/27 09:02:55;;;;;;;36.45;20.27;;;;;;;13.27;55.07;100450.44;4651857;61;1143123;-76
2021/03/27 09:08:34;;;;;;;33.92;17.45;;;;;;;13.26;54.95;100450.92;4716696;61;1142888;-75
2021/03/27 09:13:50;;;;;;;35.87;18.90;;;;;;;13.27;54.84;100451.28;4645878;61;1142800;-76
2021/03/27 09:19:38;;;;;;;38.35;20.30;;;;;;;13.27;55.00;100471.69;4697042;61;1143271;-75
2021/03/27 09:24:57;;;;;;;32.57;15.13;;;;;;;13.27;55.02;100461.91;4559380;63;1142904;-81
2021/03/27 09:30:25;;;;;;;46.60;23.07;;;;;;;13.20;54.56;100463.91;4558843;63;1142867;-73
2021/03/27 09:36:00;;;;;;;42.38;21.05;;;;;;;13.18;55.85;100457.89;4530335;64;1143159;-78
2021/03/27 09:41:47;;;;;;;36.98;19.65;;;;;;;13.27;55.83;100462.39;4500877;63;1142898;-76
2021/03/27 09:47:18;;;;;;;40.17;19.77;;;;;;;13.35;55.99;100455.40;4499917;63;1142937;-76
2021/03/27 09:53:04;;;;;;;68.90;34.90;;;;;;;13.58;55.81;100445.36;4390627;65;1142639;-74
2021/03/27 09:58:26;;;;;;;31.30;16.67;;;;;;;14.01;55.42;100448.88;4533127;62;1143349;-77
2021/03/27 10:03:53;;;;;;;36.27;16.20;;;;;;;14.32;53.27;100444.68;4649534;62;1142885;-74
2021/03/27 10:09:36;;;;;;;41.20;20.10;;;;;;;14.41;50.80;100443.83;4714391;59;1143011;-76
2021/03/27 10:14:49;;;;;;;41.55;17.90;;;;;;;14.41;51.32;100448.66;4892660;59;1142528;-74
2021/03/27 10:19:59;;;;;;;35.50;15.93;;;;;;;14.31;50.16;100452.31;4944518;58;1142368;-76
2021/03/27 10:25:15;;;;;;;32.53;15.50;;;;;;;14.20;50.33;100464.46;4998697;58;1142526;-75
2021/03/27 10:30:31;;;;;;;29.37;13.97;;;;;;;14.07;50.52;100463.41;4969430;58;1142453;-76
2021/03/27 10:35:51;;;;;;;48.43;19.97;;;;;;;13.99;51.83;100464.14;4947787;58;1142465;-74
2021/03/27 10:41:34;;;;;;;31.40;12.53;;;;;;;13.96;52.18;100472.88;5012827;58;1142846;-74
2021/03/27 10:47:13;;;;;;;39.80;15.60;;;;;;;13.95;51.73;100476.03;5000294;58;1142714;-73
2021/03/27 10:52:45;;;;;;;30.43;15.20;;;;;;;13.92;51.75;100481.63;4982794;58;1142731;-76
2021/03/27 10:58:17;;;;;;;37.57;16.30;;;;;;;13.94;52.73;100508.91;4922398;58;1142797;-74
2021/03/27 11:03:52;;;;;;;34.43;14.10;;;;;;;13.83;53.66;100502.42;4921583;58;1142785;-75
2021/03/27 11:09:38;;;;;;;31.00;14.23;;;;;;;13.73;55.83;100506.91;4889103;59;1142717;-74
2021/03/27 11:14:58;;;;;;;30.07;14.97;;;;;;;13.57;56.44;100504.80;4919271;59;1142659;-74
2021/03/27 11:20:24;;;;;;;23.95;13.08;;;;;;;13.47;57.17;100509.23;4917443;59;1142836;-73
2021/03/27 11:26:15;;;;;;;28.10;13.97;;;;;;;13.44;57.43;100513.52;4917512;59;1142862;-73
2021/03/27 11:31:33;;;;;;;28.50;15.87;;;;;;;13.42;57.49;100504.01;4920126;58;1142645;-74
2021/03/27 11:36:58;;;;;;;23.50;12.53;;;;;;;13.57;57.31;100499.97;4911248;58;1142741;-75
2021/03/27 11:42:37;;;;;;;32.55;15.78;;;;;;;13.76;57.31;100511.92;4834862;58;1142725;-75
2021/03/27 11:48:05;;;;;;;11.70;5.67;;;;;;;13.87;56.47;100549.52;4844693;59;1142711;-74
2021/03/27 11:53:18;;;;;;;12.82;4.40;;;;;;;13.42;59.85;100571.75;4692966;61;1141170;-73
2021/03/27 12:04:39;;;;;;;2.33;2.13;;;;;;;12.76;62.15;100598.69;4849190;59;1138414;-75
2021/03/27 12:09:55;;;;;;;6.70;3.07;;;;;;;12.43;61.04;100634.22;4694526;61;1138648;-76
2021/03/27 12:15:29;;;;;;;9.30;4.60;;;;;;;12.02;66.02;100650.89;4587874;61;1138596;-76
2021/03/27 12:20:41;;;;;;;3.57;3.10;;;;;;;11.53;69.58;100669.85;4582038;62;1138519;-73
2021/03/27 12:26:03;;;;;;;11.50;5.25;;;;;;;11.27;70.43;100703.68;4626484;62;1138815;-75
2021/03/27 12:31:48;;;;;;;13.62;6.85;;;;;;;11.00;72.70;100688.61;4622610;62;1140627;-74
2021/03/27 12:37:17;;;;;;;8.57;4.87;;;;;;;10.64;75.21;100722.64;4625939;62;1141052;-76
2021/03/27 12:42:45;;;;;;;14.77;5.77;;;;;;;10.16;76.65;100741.12;4575146;62;1138960;-73
2021/03/27 12:48:27;;;;;;;8.98;5.40;;;;;;;9.84;77.26;100760.59;4571327;62;1141093;-76
2021/03/27 12:53:59;;;;;;;4.93;1.70;;;;;;;9.74;76.39;100763.52;4619470;61;1136478;-73
2021/03/27 12:59:21;;;;;;;1.25;1.10;;;;;;;9.62;73.93;100753.82;4747276;61;1136403;-73
2021/03/27 13:05:04;;;;;;;3.77;2.30;;;;;;;9.49;74.04;100766.53;4771304;60;1136721;-72
2021/03/27 13:10:47;;;;;;;3.15;2.45;;;;;;;9.50;73.94;100777.94;4755314;60;1136694;-74
2021/03/27 13:16:17;;;;;;;22.40;7.17;;;;;;;9.35;72.73;100785.11;4888733;58;1136693;-74
2021/03/27 13:21:45;;;;;;;4.27;2.40;;;;;;;9.23;73.84;100796.52;4948165;59;1138621;-73
2021/03/27 13:26:55;;;;;;;4.00;2.30;;;;;;;9.07;74.55;100810.36;4945253;59;1136633;-72
2021/03/27 13:32:23;;;;;;;6.53;1.20;;;;;;;8.93;75.14;100834.17;4933439;59;1136699;-73
2021/03/27 13:37:37;;;;;;;18.87;5.63;;;;;;;8.86;75.04;100840.81;4959188;59;1136997;-73
2021/03/27 13:42:50;;;;;;;7.83;2.87;;;;;;;8.88;75.32;100844.17;4932420;58;1138841;-76
2021/03/27 13:48:21;;;;;;;30.95;9.98;;;;;;;8.92;74.86;100860.17;4847480;59;1136489;-76
2021/03/27 13:53:46;;;;;;;6.53;1.80;;;;;;;8.97;74.02;100888.43;4858659;59;1138923;-75
2021/03/27 13:59:14;;;;;;;9.77;3.40;;;;;;;8.94;72.84;100889.94;4916466;59;1136333;-75
2021/03/27 14:04:31;;;;;;;9.20;2.77;;;;;;;9.06;73.42;100891.30;4936050;58;1136464;-73
2021/03/27 14:09:58;;;;;;;14.47;4.63;;;;;;;9.12;69.02;100891.39;4936930;58;1136516;-74
2021/03/27 14:15:11;;;;;;;18.80;5.97;;;;;;;9.07;68.71;100911.47;4927579;58;1138793;-75
2021/03/27 14:20:47;;;;;;;5.78;3.08;;;;;;;9.05;67.91;100909.87;4926986;58;1138994;-74
2021/03/27 14:26:23;;;;;;;12.70;5.47;;;;;;;9.23;67.19;100895.48;4915360;58;1136163;-75
2021/03/27 14:31:54;;;;;;;1.37;1.27;;;;;;;9.19;66.53;100921.69;4885457;57;1138569;-75
2021/03/27 14:37:20;;;;;;;4.90;2.43;;;;;;;9.01;66.40;100911.85;4893409;59;1181703;-75
2021/03/27 14:42:36;;;;;;;2.50;1.53;;;;;;;8.98;67.67;100921.78;4926100;59;1136225;-76
2021/03/27 14:47:54;;;;;;;5.17;2.10;;;;;;;9.31;67.17;100914.31;4843736;60;1136616;-74
2021/03/27 14:53:19;;;;;;;2.03;1.93;;;;;;;9.46;64.78;100932.25;4841746;59;1136289;-75
2021/03/27 14:58:46;;;;;;;6.63;4.23;;;;;;;9.57;64.82;100938.97;4911781;58;1136830;-75
2021/03/27 15:04:14;;;;;;;1.97;1.57;;;;;;;9.58;64.01;100934.06;4926065;59;1136504;-74
2021/03/27 15:09:49;;;;;;;1.90;1.20;;;;;;;9.32;63.68;100954.75;4849021;59;1136540;-78
2021/03/27 15:15:14;;;;;;;4.83;2.03;;;;;;;9.09;64.43;100970.27;4825910;58;1136351;-74
2021/03/27 15:20:29;;;;;;;2.10;1.43;;;;;;;8.94;65.79;100968.61;4775017;60;1134379;-77
2021/03/27 15:31:34;;;;;;;13.70;3.95;;;;;;;9.36;64.11;100966.78;4866141;59;1136593;-74
2021/03/27 15:37:02;;;;;;;6.97;3.17;;;;;;;9.39;61.60;100966.11;4848495;59;1138532;-75
2021/03/27 15:42:31;;;;;;;6.23;2.20;;;;;;;9.20;61.35;100970.04;4849935;60;1145780;-73
2021/03/27 15:47:46;;;;;;;4.53;2.80;;;;;;;9.08;60.30;100971.69;4927057;59;1136352;-76
2021/03/27 15:53:20;;;;;;;4.77;2.67;;;;;;;9.07;60.00;100972.63;4927152;59;1134288;-75
2021/03/27 15:58:53;;;;;;;5.10;2.40;;;;;;;9.28;60.27;100963.81;4927691;59;1134313;-75
2021/03/27 16:04:20;;;;;;;5.03;2.33;;;;;;;9.28;60.27;100963.81;4921795;59;1134069;-76
2021/03/27 16:10:11;;;;;;;5.67;2.77;;;;;;;9.37;60.06;100970.64;4927258;59;1136401;-79
2021/03/27 16:15:39;;;;;;;4.17;3.40;;;;;;;9.37;59.51;100977.23;4927368;59;1136219;-75
2021/03/27 16:21:21;;;;;;;5.20;2.20;;;;;;;9.44;59.81;100984.30;4918114;59;1136264;-77
2021/03/27 16:26:51;;;;;;;5.30;2.17;;;;;;;9.50;59.07;100989.16;4916783;59;1136380;-78
2021/03/27 16:32:16;;;;;;;3.60;2.30;;;;;;;9.48;58.96;101000.30;4755820;60;1136450;-74
2021/03/27 16:37:42;;;;;;;8.33;3.27;;;;;;;9.46;58.74;101007.49;4544459;63;1136961;-78
2021/03/27 16:43:22;;;;;;;4.37;3.97;;;;;;;9.41;59.36;101010.42;4552810;64;1137005;-76
2021/03/27 16:49:10;;;;;;;8.07;4.97;;;;;;;9.30;59.58;101014.23;4551647;64;1134812;-80
2021/03/27 16:54:37;;;;;;;6.85;4.75;;;;;;;9.22;60.00;101011.70;4525711;63;1134484;-77
2021/03/27 16:59:58;;;;;;;14.97;9.27;;;;;;;9.15;60.20;101015.22;4552484;63;1134760;-75
2021/03/27 17:05:27;;;;;;;8.15;4.70;;;;;;;9.04;60.42;101020.30;4620911;63;1136524;-77
2021/03/27 17:11:10;;;;;;;13.40;5.60;;;;;;;8.91;60.68;101033.89;4609669;63;1134680;-77
2021/03/27 17:16:35;;;;;;;8.68;5.22;;;;;;;8.81;60.92;101037.59;4767761;61;1136576;-76
2021/03/27 17:22:26;;;;;;;9.90;6.70;;;;;;;8.74;61.24;101039.75;4839101;60;1134118;-73
2021/03/27 17:27:39;;;;;;;10.17;6.90;;;;;;;8.67;61.36;101047.67;4834466;60;1134285;-77
2021/03/27 17:33:23;;;;;;;16.80;8.73;;;;;;;8.57;61.84;101088.70;4863973;58;1136524;-76
2021/03/27 17:38:42;;;;;;;30.50;22.00;;;;;;;8.27;64.75;101140.09;4931595;58;1136715;-76
2021/03/27 17:44:03;;;;;;;59.60;39.80;;;;;;;7.54;69.23;101152.63;4871714;59;1141224;-73
2021/03/27 17:49:44;;;;;;;25.97;18.37;;;;;;;7.20;71.97;101151.81;4924754;58;1140931;-75
2021/03/27 17:55:06;;;;;;;131.03;64.23;;;;;;;7.02;72.69;101164.65;4957382;58;1138571;-78
2021/03/27 18:00:41;;;;;;;246.68;92.88;;;;;;;6.90;73.80;101175.31;4933091;59;1143193;-73
2021/03/27 18:05:50;;;;;;;193.60;75.30;;;;;;;6.87;73.34;101190.42;4927266;59;1142474;-77
2021/03/27 18:11:09;;;;;;;50.73;27.43;;;;;;;6.80;74.73;101208.28;4934483;59;1142648;-76
2021/03/27 18:16:21;;;;;;;91.00;34.67;;;;;;;6.72;74.23;101218.34;4934357;59;1140672;-77
2021/03/27 18:21:59;;;;;;;;;;;;;;;6.68;74.93;101213.70;4937981;59;1141099;-74
2021/03/27 18:27:30;;;;;;;21.75;11.83;;;;;;;6.67;75.39;101216.41;4936441;59;973795;-75
2021/03/27 18:32:55;;;;;;;16.27;4.85;;;;;;;6.74;74.50;101219.55;4930937;59;1138618;-78
2021/03/27 18:38:14;;;;;;;14.80;7.87;;;;;;;6.67;75.13;101224.30;4932892;59;1138503;-74
2021/03/27 18:43:32;;;;;;;13.32;8.15;;;;;;;6.62;74.90;101233.70;4930844;59;1138719;-75
2021/03/27 18:48:51;;;;;;;5.17;3.10;;;;;;;6.50;75.65;101229.53;4961043;58;1138561;-78
2021/03/27 18:54:09;;;;;;;3.07;2.07;;;;;;;6.44;75.22;101226.73;4985778;58;1134459;-76
2021/03/27 18:59:27;;;;;;;2.98;1.92;;;;;;;6.37;75.83;101218.78;4981547;58;1136388;-75
2021/03/27 19:04:40;;;;;;;15.97;9.13;;;;;;;6.35;75.44;101236.39;4945917;58;1136159;-78
2021/03/27 19:09:51;;;;;;;;;;;;;;;6.32;75.25;101243.09;4931665;59;1136482;-74
2021/03/27 19:15:24;;;;;;;7.60;4.07;;;;;;;6.28;75.27;101244.16;4939626;59;973700;-74
2021/03/27 19:20:40;;;;;;;3.43;1.97;;;;;;;6.22;75.33;101249.27;4933416;59;1134712;-75
2021/03/27 19:25:46;;;;;;;2.30;1.83;;;;;;;6.17;75.24;101249.94;4923901;59;1134265;-75
2021/03/27 19:30:59;;;;;;;15.63;6.80;;;;;;;6.07;75.71;101251.77;4923854;59;1134811;-76
2021/03/27 19:36:20;;;;;;;13.62;4.46;;;;;;;6.04;75.32;101260.64;4941446;59;1138980;-77
2021/03/27 19:41:45;;;;;;;4.73;1.87;;;;;;;6.02;75.71;101262.94;4919242;59;1138267;-77
2021/03/27 19:46:57;;;;;;;;;;;;;;;5.95;75.85;101262.39;4927526;59;1134324;-79
2021/03/27 19:52:19;;;;;;;13.77;10.00;;;;;;;5.85;75.74;101257.13;4937406;59;972006;-79
2021/03/27 19:58:03;;;;;;;80.43;28.43;;;;;;;5.77;75.51;101263.20;4923845;59;1136669;-76
2021/03/27 20:03:18;;;;;;;21.57;6.50;;;;;;;5.65;75.67;101269.38;4924175;59;1138458;-83
2021/03/27 20:08:52;;;;;;;31.37;7.55;;;;;;;5.56;75.67;101271.58;4931388;59;1136371;-76
2021/03/27 20:14:19;;;;;;;21.68;5.35;;;;;;;5.48;75.52;101286.36;4932374;59;1136365;-80
2021/03/27 20:19:36;;;;;;;18.42;5.45;;;;;;;5.43;75.68;101299.28;4926392;59;1136940;-75
2021/03/27 20:25:08;;;;;;;22.10;5.97;;;;;;;5.37;76.00;101306.95;4923326;59;1136630;-79
2021/03/27 20:30:21;;;;;;;32.47;7.97;;;;;;;5.38;75.56;101316.98;4928701;59;1142673;-83
2021/03/27 20:35:58;;;;;;;22.93;6.40;;;;;;;5.28;76.54;101329.19;4910827;59;1136812;-72
2021/03/27 20:41:44;;;;;;;32.53;8.40;;;;;;;5.21;76.40;101332.98;4929193;58;1136863;-75
2021/03/27 20:47:12;;;;;;;4.50;2.37;;;;;;;5.17;76.49;101335.81;4929483;58;1136380;-80
2021/03/27 20:52:33;;;;;;;32.53;6.70;;;;;;;5.11;76.46;101336.91;4929689;59;1134348;-78
2021/03/27 20:57:45;;;;;;;22.55;5.72;;;;;;;5.06;77.05;101336.70;4929145;59;1136243;-76
2021/03/27 21:03:07;;;;;;;28.13;7.70;;;;;;;5.02;77.00;101342.55;4929322;59;1136240;-83
2021/03/27 21:08:26;;;;;;;20.00;6.17;;;;;;;5.01;76.63;101345.23;4929819;59;1137159;-80
2021/03/27 21:13:59;;;;;;;23.50;6.53;;;;;;;4.94;77.17;101352.03;4929358;59;1136405;-81
2021/03/27 21:19:45;;;;;;;24.87;6.73;;;;;;;4.90;76.66;101351.75;4929205;59;1136441;-80
2021/03/27 21:25:22;;;;;;;22.93;6.57;;;;;;;4.84;77.06;101365.13;4931447;59;1136856;-78
2021/03/27 21:30:44;;;;;;;9.57;3.97;;;;;;;4.79;76.59;101377.55;4937621;58;1136589;-78
2021/03/27 21:36:13;;;;;;;12.27;7.97;;;;;;;4.75;76.53;101381.20;4938411;59;1134310;-84
2021/03/27 21:41:26;;;;;;;7.87;3.47;;;;;;;4.73;76.70;101393.53;4938259;59;1136884;-82
2021/03/27 21:46:42;;;;;;;6.58;2.80;;;;;;;4.74;76.38;101395.21;4933694;59;1134219;-77
2021/03/27 21:52:29;;;;;;;20.90;6.00;;;;;;;4.79;76.29;101402.45;4933423;59;1134338;-79
2021/03/27 21:58:00;;;;;;;11.63;3.40;;;;;;;4.74;76.52;101412.70;4938180;59;1136596;-75
2021/03/27 22:03:49;;;;;;;12.20;4.47;;;;;;;4.71;76.71;101429.87;4933542;59;1136371;-78
2021/03/27 22:09:34;;;;;;;15.93;3.60;;;;;;;4.68;76.83;101434.78;4938082;59;1136198;-80
2021/03/27 22:15:05;;;;;;;13.43;2.52;;;;;;;4.70;76.87;101443.89;4938252;59;1136207;-76
2021/03/27 22:20:38;;;;;;;14.60;4.03;;;;;;;4.66;77.33;101449.70;4938194;59;1136306;-80
2021/03/27 22:25:48;;;;;;;2.13;1.60;;;;;;;4.63;77.04;101456.81;4937849;59;1137072;-75
2021/03/27 22:31:16;;;;;;;7.07;2.13;;;;;;;4.59;76.95;101471.33;4905132;59;1134218;-79
2021/03/27 22:36:35;;;;;;;3.50;1.87;;;;;;;4.57;76.45;101478.88;4937267;58;1134676;-78
2021/03/27 22:41:45;;;;;;;13.37;4.97;;;;;;;4.50;76.52;101481.31;4938218;59;1134135;-82
2021/03/27 22:47:06;;;;;;;8.57;4.43;;;;;;;4.43;76.61;101480.67;4937366;59;1136306;-79
2021/03/27 22:52:34;;;;;;;3.80;1.00;;;;;;;4.40;76.63;101492.59;4937559;59;1134177;-77
2021/03/27 22:57:48;;;;;;;5.17;2.20;;;;;;;4.32;76.97;101500.31;4840624;59;1134585;-75
2021/03/27 23:03:03;;;;;;;4.50;2.10;;;;;;;4.28;77.31;101512.66;4859892;59;1134295;-75
2021/03/27 23:08:15;;;;;;;4.30;2.07;;;;;;;4.26;77.38;101522.35;4838017;60;1134849;-78
2021/03/27 23:13:25;;;;;;;5.20;3.17;;;;;;;4.28;77.79;101526.23;4860516;59;1134476;-76
2021/03/27 23:18:41;;;;;;;3.27;1.75;;;;;;;4.28;77.77;101524.92;4884761;59;1134644;-73
2021/03/27 23:23:56;;;;;;;4.77;2.40;;;;;;;4.33;77.43;101519.90;4935881;59;1134118;-86
2021/03/27 23:29:09;;;;;;;5.13;2.37;;;;;;;4.38;77.43;101518.44;4860296;59;1134360;-78
2021/03/27 23:34:34;;;;;;;;;;;;;;;4.42;77.54;101534.45;4859950;59;1134465;-78
2021/03/27 23:39:44;;;;;;;6.17;2.20;;;;;;;4.44;77.27;101536.53;4873984;60;971681;-82
2021/03/27 23:45:12;;;;;;;4.70;1.65;;;;;;;4.45;77.44;101555.27;4860633;59;1132120;-73
2021/03/27 23:50:32;;;;;;;1.98;1.40;;;;;;;4.45;77.53;101558.74;4858420;59;1134632;-80
2021/03/27 23:55:48;;;;;;;3.07;1.37;;;;;;;4.44;77.41;101556.17;4860520;59;1134695;-81
